Strona główna
METAR-TAF:

METAR-TAF

Lotnisko :

Platforma wiertnicza

A12-cpp, Holandia

Szerokość geograficzna: 55-23-57N, Długość geograficzna: 3-48-37E, wysokość: 33 m

Aktualna obserwacja pogody

Raport powstał 20 minut temu, godzina 15:25 UTC
Wiatr 11 kt od południe
Temperatura 8°C
Wilgotność 71%
Ciśnienie 1026 hPa
Widzialność 10 km lub więcej

METAR: EHAK 291525Z AUTO 17011KT 9999 BKN017/// 08/03 Q1026

czas: 16:45 (15:45 UTC)


TAF: brakujący

Obserwacja i prognoza pogody dla ponad 4000 lotnisk (raport METAR i TAF).

Dostępne stacje oznaczono żółtymi i czerwonymi punktami na mapie.

Najedź kursorem aby zobaczyć nazwę stacji.

Kliknij aby zobaczyć obserwacje i prognozy pogody.

Aby zmienić mapę: kliknij na zielony przycisk z czarnym krzyżykiem, aby powiększyć; na zielony przycisk z myślnikiem, aby pomniejszyć; na zielone strzałki, aby przejść do map sąsiednich.


METAR-TAF: